Аэропорт: Кемерово. Кемерово

ICAO: UNEE

METAR:
2020-08-09 22:30:00
UNEE 092230Z 06002MPS CAVOK 17/12 Q1003 R23/CLRD60 NOSIG RMK QFE730
METAR:
2020-08-09 20:00:00
TAF UNEE 092000Z 0921/1021 06003G08MPS 9999 SCT040 TEMPO 0921/1002 0300 FG BKN001